WEATHER DATA

TODAY
Time Temp. Dewp. Hum. Bar.
00:05 6.1 3.6 84 1022.3
00:16 6.1 3.6 84 1022.3
00:25 6.1 3.8 85 1022.3
00:35 6 3.7 85 1022.2
00:45 5.9 3.6 85 1022.2
00:56 5.9 3.6 85 1022.2
01:06 5.9 3.6 85 1022.1
01:15 5.8 3.5 85 1022.2
01:26 5.7 3.4 85 1022.1
01:36 5.7 3.4 85 1022.2
01:46 5.6 3.3 85 1022.3
01:56 5.5 3.3 86 1022.3
02:06 5.5 3.3 86 1022.2
02:16 5.4 3.2 86 1022.2
02:26 5.2 3.1 86 1022.1
02:37 5.1 3 86 1022
02:46 5.1 3 86 1021.8
02:56 5.1 3 86 1021.8
03:06 5.1 3 86 1021.8
03:17 5.1 3 86 1021.9
03:27 5 3 87 1021.9
03:36 5 3 87 1021.9
03:47 5 3 87 1021.8
03:57 5 3 87 1021.8
04:07 4.8 2.7 86 1021.6
04:17 4.8 2.8 87 1021.5
04:27 4.8 2.8 87 1021.4
04:37 4.8 2.8 87 1021.3
04:47 4.8 2.8 87 1021.3
04:58 4.8 2.8 87 1021.2
05:07 4.8 2.8 87 1021.2
05:17 4.9 2.9 87 1021.1
05:27 4.9 2.9 87 1021
05:38 4.9 2.9 87 1020.9
05:48 4.8 2.8 87 1020.9
05:57 4.8 2.8 87 1021
06:08 4.7 2.7 87 1020.9
06:18 4.8 2.8 87 1020.9
06:28 4.8 2.8 87 1020.8
06:38 4.8 2.8 87 1020.7
06:48 4.8 2.8 87 1020.7
06:58 4.7 2.7 87 1020.7
07:08 4.6 2.6 87 1020.6
07:19 4.6 2.6 87 1020.7
07:28 4.7 2.7 87 1020.8
07:38 4.7 2.7 87 1020.7
07:48 4.7 2.7 87 1020.7
07:59 4.7 2.7 87 1020.6
08:18 4.6 2.6 87 1020.6
08:29 4.5 2.5 87 1020.6
08:39 4.6 2.6 87 1020.6
08:49 4.8 3 88 1020.6
08:59 6.6 5.1 90 1020.5
09:09 8 6.1 88 1020.6
09:19 9.4 6.8 84 1020.7
09:29 10.7 7.6 81 1020.7
09:40 11.8 7.9 77 1020.7
09:50 12.8 8.1 73 1020.8
09:59 11 6.4 73 1020.9
10:09 9.7 5.9 77 1020.9
10:20 9.2 5.8 79 1020.9
10:30 8.9 5.6 80 1020.9
10:39 8.8 5.7 81 1020.8
10:50 8.9 5.8 81 1020.8
11:00 9 5.9 81 1020.9
11:10 9.1 6 81 1021
11:20 9.3 6.2 81 1020.9

DAY STATISTIC

2021-10-25
TEMPERATURE
AVERAGE
6.1
HIGH
12.8
09:50
LOW
4.5
08:29
PRESSURE
AVERAGE
1021.3
HIGH
1022.3
00:05
LOW
1020.5
08:59
DEWPOINT
AVERAGE
3.7
HIGH
8.1
09:50
LOW
2.5
08:29
HUMIDITY
AVERAGE
85
HIGH
90
08:59
LOW
73
09:50
TEMPERATURE (°C)
LOW
4.5
HIGH
12.8
AVERAGE
6.1
PRESSURE (hpa)
LOW
1020.5
HIGH
1022.3
AVERAGE
1021.3
DEVICE